sensor_id;sensor_type;location;lat;lon;timestamp;P1;durP1;ratioP1;P2;durP2;ratioP2
8439;SDS011;4257;48.568;7.818;2023-03-01T00:00:39;2.07;;;1.37;;
8439;SDS011;4257;48.568;7.818;2023-03-01T00:03:06;1.80;;;1.63;;
8439;SDS011;4257;48.568;7.818;2023-03-01T00:05:32;1.50;;;1.00;;
8439;SDS011;4257;48.568;7.818;2023-03-01T00:07:59;0.80;;;0.73;;
8439;SDS011;4257;48.568;7.818;2023-03-01T00:10:26;2.40;;;0.77;;
8439;SDS011;4257;48.568;7.818;2023-03-01T00:12:52;3.60;;;1.30;;
8439;SDS011;4257;48.568;7.818;2023-03-01T00:15:20;1.60;;;1.03;;
8439;SDS011;4257;48.568;7.818;2023-03-01T00:17:48;2.97;;;1.07;;
8439;SDS011;4257;48.568;7.818;2023-03-01T00:20:14;1.30;;;0.83;;
8439;SDS011;4257;48.568;7.818;2023-03-01T00:22:40;4.57;;;1.27;;
8439;SDS011;4257;48.568;7.818;2023-03-01T00:25:07;1.00;;;0.90;;
8439;SDS011;4257;48.568;7.818;2023-03-01T00:27:34;2.97;;;1.80;;
8439;SDS011;4257;48.568;7.818;2023-03-01T00:30:00;2.10;;;1.37;;
8439;SDS011;4257;48.568;7.818;2023-03-01T00:32:27;3.10;;;1.83;;
8439;SDS011;4257;48.568;7.818;2023-03-01T00:34:55;4.20;;;1.87;;
8439;SDS011;4257;48.568;7.818;2023-03-01T00:37:22;1.67;;;1.40;;
8439;SDS011;4257;48.568;7.818;2023-03-01T00:39:49;0.77;;;0.77;;
8439;SDS011;4257;48.568;7.818;2023-03-01T00:42:15;0.77;;;0.77;;
8439;SDS011;4257;48.568;7.818;2023-03-01T00:44:42;0.97;;;0.87;;
8439;SDS011;4257;48.568;7.818;2023-03-01T00:47:09;2.17;;;1.20;;
8439;SDS011;4257;48.568;7.818;2023-03-01T00:49:35;4.73;;;1.40;;
8439;SDS011;4257;48.568;7.818;2023-03-01T00:52:03;0.93;;;0.90;;
8439;SDS011;4257;48.568;7.818;2023-03-01T00:54:29;1.23;;;1.13;;
8439;SDS011;4257;48.568;7.818;2023-03-01T00:56:56;3.17;;;1.40;;
8439;SDS011;4257;48.568;7.818;2023-03-01T00:59:22;3.40;;;2.93;;
8439;SDS011;4257;48.568;7.818;2023-03-01T01:01:49;1.17;;;1.07;;
8439;SDS011;4257;48.568;7.818;2023-03-01T01:04:15;2.80;;;1.40;;
8439;SDS011;4257;48.568;7.818;2023-03-01T01:06:43;2.47;;;2.00;;
8439;SDS011;4257;48.568;7.818;2023-03-01T01:09:12;1.10;;;1.00;;
8439;SDS011;4257;48.568;7.818;2023-03-01T01:11:42;3.50;;;2.00;;
8439;SDS011;4257;48.568;7.818;2023-03-01T01:14:09;1.60;;;1.13;;
8439;SDS011;4257;48.568;7.818;2023-03-01T01:16:35;1.70;;;1.00;;
8439;SDS011;4257;48.568;7.818;2023-03-01T01:19:02;4.70;;;1.53;;
8439;SDS011;4257;48.568;7.818;2023-03-01T01:21:28;2.50;;;1.27;;
8439;SDS011;4257;48.568;7.818;2023-03-01T01:23:55;6.07;;;2.67;;
8439;SDS011;4257;48.568;7.818;2023-03-01T01:26:23;4.60;;;1.20;;
8439;SDS011;4257;48.568;7.818;2023-03-01T01:28:51;2.33;;;1.30;;
8439;SDS011;4257;48.568;7.818;2023-03-01T01:31:18;2.10;;;1.70;;
8439;SDS011;4257;48.568;7.818;2023-03-01T01:33:44;3.50;;;0.80;;
8439;SDS011;4257;48.568;7.818;2023-03-01T01:36:11;1.10;;;1.03;;
8439;SDS011;4257;48.568;7.818;2023-03-01T01:38:38;1.33;;;1.23;;
8439;SDS011;4257;48.568;7.818;2023-03-01T01:41:05;1.87;;;1.00;;
8439;SDS011;4257;48.568;7.818;2023-03-01T01:43:34;1.87;;;1.17;;
8439;SDS011;4257;48.568;7.818;2023-03-01T01:46:03;1.70;;;0.57;;
8439;SDS011;4257;48.568;7.818;2023-03-01T01:48:32;0.83;;;0.77;;
8439;SDS011;4257;48.568;7.818;2023-03-01T01:51:06;1.07;;;0.67;;
8439;SDS011;4257;48.568;7.818;2023-03-01T01:53:35;1.30;;;1.07;;
8439;SDS011;4257;48.568;7.818;2023-03-01T01:56:01;2.13;;;1.07;;
8439;SDS011;4257;48.568;7.818;2023-03-01T01:58:29;0.77;;;0.50;;
8439;SDS011;4257;48.568;7.818;2023-03-01T02:00:57;3.33;;;1.53;;
8439;SDS011;4257;48.568;7.818;2023-03-01T02:03:26;1.63;;;1.37;;
8439;SDS011;4257;48.568;7.818;2023-03-01T02:05:59;1.40;;;1.30;;
8439;SDS011;4257;48.568;7.818;2023-03-01T02:08:30;4.47;;;1.80;;
8439;SDS011;4257;48.568;7.818;2023-03-01T02:10:58;2.63;;;2.07;;
8439;SDS011;4257;48.568;7.818;2023-03-01T02:13:26;2.40;;;1.63;;
8439;SDS011;4257;48.568;7.818;2023-03-01T02:15:52;3.03;;;1.90;;
8439;SDS011;4257;48.568;7.818;2023-03-01T02:18:21;1.23;;;1.20;;
8439;SDS011;4257;48.568;7.818;2023-03-01T02:20:50;0.50;;;0.50;;
8439;SDS011;4257;48.568;7.818;2023-03-01T02:23:24;1.90;;;1.30;;
8439;SDS011;4257;48.568;7.818;2023-03-01T02:25:53;4.37;;;1.80;;
8439;SDS011;4257;48.568;7.818;2023-03-01T02:28:26;2.93;;;1.03;;
8439;SDS011;4257;48.568;7.818;2023-03-01T02:30:55;1.43;;;1.00;;
8439;SDS011;4257;48.568;7.818;2023-03-01T02:33:39;1.20;;;1.10;;
8439;SDS011;4257;48.568;7.818;2023-03-01T02:36:06;1.83;;;1.10;;
8439;SDS011;4257;48.568;7.818;2023-03-01T02:38:36;1.97;;;1.77;;
8439;SDS011;4257;48.568;7.818;2023-03-01T02:41:03;1.80;;;0.93;;
8439;SDS011;4257;48.568;7.818;2023-03-01T02:43:32;1.13;;;1.00;;
8439;SDS011;4257;48.568;7.818;2023-03-01T02:46:04;1.00;;;1.00;;
8439;SDS011;4257;48.568;7.818;2023-03-01T02:48:39;2.80;;;1.13;;
8439;SDS011;4257;48.568;7.818;2023-03-01T02:51:07;4.63;;;1.10;;
8439;SDS011;4257;48.568;7.818;2023-03-01T02:53:41;3.03;;;1.47;;
8439;SDS011;4257;48.568;7.818;2023-03-01T02:56:14;3.83;;;0.83;;
8439;SDS011;4257;48.568;7.818;2023-03-01T02:58:43;1.50;;;1.13;;
8439;SDS011;4257;48.568;7.818;2023-03-01T03:01:13;1.70;;;1.40;;
8439;SDS011;4257;48.568;7.818;2023-03-01T03:03:41;2.80;;;1.73;;
8439;SDS011;4257;48.568;7.818;2023-03-01T03:06:08;1.47;;;1.03;;
8439;SDS011;4257;48.568;7.818;2023-03-01T03:08:34;4.57;;;2.00;;
8439;SDS011;4257;48.568;7.818;2023-03-01T03:11:01;0.90;;;0.63;;
8439;SDS011;4257;48.568;7.818;2023-03-01T03:13:27;0.57;;;0.57;;
8439;SDS011;4257;48.568;7.818;2023-03-01T03:15:55;2.37;;;1.27;;
8439;SDS011;4257;48.568;7.818;2023-03-01T03:18:22;0.90;;;0.90;;
8439;SDS011;4257;48.568;7.818;2023-03-01T03:20:51;0.60;;;0.60;;
8439;SDS011;4257;48.568;7.818;2023-03-01T03:23:18;1.00;;;0.77;;
8439;SDS011;4257;48.568;7.818;2023-03-01T03:25:47;1.57;;;0.87;;
8439;SDS011;4257;48.568;7.818;2023-03-01T03:28:14;1.20;;;0.70;;
8439;SDS011;4257;48.568;7.818;2023-03-01T03:30:41;0.90;;;0.80;;
8439;SDS011;4257;48.568;7.818;2023-03-01T03:33:09;4.43;;;1.67;;
8439;SDS011;4257;48.568;7.818;2023-03-01T03:35:38;0.50;;;0.50;;
8439;SDS011;4257;48.568;7.818;2023-03-01T03:38:07;0.57;;;0.57;;
8439;SDS011;4257;48.568;7.818;2023-03-01T03:40:41;1.07;;;0.93;;
8439;SDS011;4257;48.568;7.818;2023-03-01T03:43:09;1.43;;;0.77;;
8439;SDS011;4257;48.568;7.818;2023-03-01T03:45:37;1.27;;;0.93;;
8439;SDS011;4257;48.568;7.818;2023-03-01T03:48:04;0.70;;;0.67;;
8439;SDS011;4257;48.568;7.818;2023-03-01T03:50:33;1.23;;;0.97;;
8439;SDS011;4257;48.568;7.818;2023-03-01T03:53:00;5.57;;;2.30;;
8439;SDS011;4257;48.568;7.818;2023-03-01T03:55:26;2.40;;;0.63;;
8439;SDS011;4257;48.568;7.818;2023-03-01T03:57:56;1.00;;;0.57;;
8439;SDS011;4257;48.568;7.818;2023-03-01T04:00:23;1.47;;;1.30;;
8439;SDS011;4257;48.568;7.818;2023-03-01T04:02:50;1.27;;;0.63;;
8439;SDS011;4257;48.568;7.818;2023-03-01T04:05:21;1.57;;;0.93;;
8439;SDS011;4257;48.568;7.818;2023-03-01T04:07:49;0.77;;;0.77;;
8439;SDS011;4257;48.568;7.818;2023-03-01T04:10:26;1.47;;;1.30;;
8439;SDS011;4257;48.568;7.818;2023-03-01T04:12:53;0.90;;;0.80;;
8439;SDS011;4257;48.568;7.818;2023-03-01T04:15:21;1.03;;;0.70;;
8439;SDS011;4257;48.568;7.818;2023-03-01T04:17:49;2.13;;;1.03;;
8439;SDS011;4257;48.568;7.818;2023-03-01T04:20:17;1.90;;;1.07;;
8439;SDS011;4257;48.568;7.818;2023-03-01T04:22:51;1.10;;;1.00;;
8439;SDS011;4257;48.568;7.818;2023-03-01T04:25:18;1.10;;;1.00;;
8439;SDS011;4257;48.568;7.818;2023-03-01T04:27:45;0.43;;;0.43;;
8439;SDS011;4257;48.568;7.818;2023-03-01T04:30:11;3.03;;;1.00;;
8439;SDS011;4257;48.568;7.818;2023-03-01T04:32:38;1.53;;;0.90;;
8439;SDS011;4257;48.568;7.818;2023-03-01T04:35:04;3.63;;;1.00;;
8439;SDS011;4257;48.568;7.818;2023-03-01T04:37:31;1.07;;;0.87;;
8439;SDS011;4257;48.568;7.818;2023-03-01T04:39:59;1.67;;;1.57;;
8439;SDS011;4257;48.568;7.818;2023-03-01T04:42:25;1.70;;;1.47;;
8439;SDS011;4257;48.568;7.818;2023-03-01T04:44:52;1.80;;;1.17;;
8439;SDS011;4257;48.568;7.818;2023-03-01T04:47:18;0.63;;;0.63;;
8439;SDS011;4257;48.568;7.818;2023-03-01T04:49:45;1.83;;;1.23;;
8439;SDS011;4257;48.568;7.818;2023-03-01T04:52:11;1.90;;;1.03;;
8439;SDS011;4257;48.568;7.818;2023-03-01T04:54:37;1.93;;;1.20;;
8439;SDS011;4257;48.568;7.818;2023-03-01T04:57:05;0.93;;;0.93;;
8439;SDS011;4257;48.568;7.818;2023-03-01T04:59:32;2.70;;;1.30;;
8439;SDS011;4257;48.568;7.818;2023-03-01T05:01:58;1.57;;;1.23;;
8439;SDS011;4257;48.568;7.818;2023-03-01T05:04:25;1.53;;;1.37;;
8439;SDS011;4257;48.568;7.818;2023-03-01T05:06:52;3.90;;;1.23;;
8439;SDS011;4257;48.568;7.818;2023-03-01T05:09:19;1.17;;;0.90;;
8439;SDS011;4257;48.568;7.818;2023-03-01T05:11:46;1.67;;;1.53;;
8439;SDS011;4257;48.568;7.818;2023-03-01T05:14:14;4.07;;;1.30;;
8439;SDS011;4257;48.568;7.818;2023-03-01T05:16:40;1.80;;;1.20;;
8439;SDS011;4257;48.568;7.818;2023-03-01T05:19:06;1.90;;;0.90;;
8439;SDS011;4257;48.568;7.818;2023-03-01T05:21:40;2.13;;;2.00;;
8439;SDS011;4257;48.568;7.818;2023-03-01T05:24:26;5.60;;;1.03;;
8439;SDS011;4257;48.568;7.818;2023-03-01T05:26:53;1.47;;;1.07;;
8439;SDS011;4257;48.568;7.818;2023-03-01T05:29:22;1.37;;;1.23;;
8439;SDS011;4257;48.568;7.818;2023-03-01T05:31:51;3.23;;;1.43;;
8439;SDS011;4257;48.568;7.818;2023-03-01T05:34:18;1.23;;;0.80;;
8439;SDS011;4257;48.568;7.818;2023-03-01T05:36:47;2.40;;;1.30;;
8439;SDS011;4257;48.568;7.818;2023-03-01T05:39:16;3.60;;;0.43;;
8439;SDS011;4257;48.568;7.818;2023-03-01T05:41:42;1.37;;;1.23;;
8439;SDS011;4257;48.568;7.818;2023-03-01T05:44:09;1.63;;;0.90;;
8439;SDS011;4257;48.568;7.818;2023-03-01T05:46:38;0.63;;;0.63;;
8439;SDS011;4257;48.568;7.818;2023-03-01T05:49:05;2.73;;;1.90;;
8439;SDS011;4257;48.568;7.818;2023-03-01T05:51:32;4.17;;;2.30;;
8439;SDS011;4257;48.568;7.818;2023-03-01T05:53:58;1.57;;;1.27;;
8439;SDS011;4257;48.568;7.818;2023-03-01T05:56:25;2.67;;;1.70;;
8439;SDS011;4257;48.568;7.818;2023-03-01T05:58:51;0.60;;;0.60;;
8439;SDS011;4257;48.568;7.818;2023-03-01T06:01:18;2.93;;;1.20;;
8439;SDS011;4257;48.568;7.818;2023-03-01T06:03:46;1.90;;;1.30;;
8439;SDS011;4257;48.568;7.818;2023-03-01T06:06:12;0.70;;;0.70;;
8439;SDS011;4257;48.568;7.818;2023-03-01T06:08:39;0.50;;;0.50;;
8439;SDS011;4257;48.568;7.818;2023-03-01T06:11:05;0.87;;;0.87;;
8439;SDS011;4257;48.568;7.818;2023-03-01T06:13:32;1.07;;;0.97;;
8439;SDS011;4257;48.568;7.818;2023-03-01T06:15:59;1.87;;;1.07;;
8439;SDS011;4257;48.568;7.818;2023-03-01T06:18:25;2.30;;;1.80;;
8439;SDS011;4257;48.568;7.818;2023-03-01T06:20:53;1.10;;;0.87;;
8439;SDS011;4257;48.568;7.818;2023-03-01T06:23:20;2.57;;;2.37;;
8439;SDS011;4257;48.568;7.818;2023-03-01T06:25:47;5.57;;;2.00;;
8439;SDS011;4257;48.568;7.818;2023-03-01T06:28:13;4.90;;;2.97;;
8439;SDS011;4257;48.568;7.818;2023-03-01T06:30:40;1.37;;;1.27;;
8439;SDS011;4257;48.568;7.818;2023-03-01T06:33:06;1.63;;;0.70;;
8439;SDS011;4257;48.568;7.818;2023-03-01T06:35:33;1.17;;;1.00;;
8439;SDS011;4257;48.568;7.818;2023-03-01T06:38:01;2.50;;;2.30;;
8439;SDS011;4257;48.568;7.818;2023-03-01T06:40:28;4.27;;;2.57;;
8439;SDS011;4257;48.568;7.818;2023-03-01T06:42:56;0.87;;;0.57;;
8439;SDS011;4257;48.568;7.818;2023-03-01T06:45:22;4.17;;;2.43;;
8439;SDS011;4257;48.568;7.818;2023-03-01T06:47:49;1.60;;;1.43;;
8439;SDS011;4257;48.568;7.818;2023-03-01T06:50:16;1.10;;;1.00;;
8439;SDS011;4257;48.568;7.818;2023-03-01T06:52:43;2.40;;;1.57;;
8439;SDS011;4257;48.568;7.818;2023-03-01T06:55:12;1.23;;;1.10;;
8439;SDS011;4257;48.568;7.818;2023-03-01T06:57:39;3.33;;;1.87;;
8439;SDS011;4257;48.568;7.818;2023-03-01T07:00:06;2.63;;;2.13;;
8439;SDS011;4257;48.568;7.818;2023-03-01T07:02:33;1.03;;;1.03;;
8439;SDS011;4257;48.568;7.818;2023-03-01T07:05:00;1.83;;;1.63;;
8439;SDS011;4257;48.568;7.818;2023-03-01T07:07:26;4.73;;;1.00;;
8439;SDS011;4257;48.568;7.818;2023-03-01T07:09:53;2.77;;;2.50;;
8439;SDS011;4257;48.568;7.818;2023-03-01T07:12:20;3.93;;;1.67;;
8439;SDS011;4257;48.568;7.818;2023-03-01T07:14:47;1.30;;;1.20;;
8439;SDS011;4257;48.568;7.818;2023-03-01T07:17:13;1.77;;;1.17;;
8439;SDS011;4257;48.568;7.818;2023-03-01T07:19:40;2.20;;;1.67;;
8439;SDS011;4257;48.568;7.818;2023-03-01T07:22:06;1.33;;;1.23;;
8439;SDS011;4257;48.568;7.818;2023-03-01T07:24:34;1.53;;;1.30;;
8439;SDS011;4257;48.568;7.818;2023-03-01T07:27:00;0.87;;;0.87;;
8439;SDS011;4257;48.568;7.818;2023-03-01T07:29:28;1.00;;;0.90;;
8439;SDS011;4257;48.568;7.818;2023-03-01T07:31:56;1.57;;;1.47;;
8439;SDS011;4257;48.568;7.818;2023-03-01T07:34:23;4.27;;;1.57;;
8439;SDS011;4257;48.568;7.818;2023-03-01T07:36:49;2.63;;;1.83;;
8439;SDS011;4257;48.568;7.818;2023-03-01T07:39:16;3.53;;;1.50;;
8439;SDS011;4257;48.568;7.818;2023-03-01T07:41:42;2.20;;;1.83;;
8439;SDS011;4257;48.568;7.818;2023-03-01T07:44:08;0.80;;;0.80;;
8439;SDS011;4257;48.568;7.818;2023-03-01T07:46:37;2.63;;;1.57;;
8439;SDS011;4257;48.568;7.818;2023-03-01T07:49:03;1.23;;;1.03;;
8439;SDS011;4257;48.568;7.818;2023-03-01T07:51:30;2.13;;;1.40;;
8439;SDS011;4257;48.568;7.818;2023-03-01T07:53:56;1.47;;;1.37;;
8439;SDS011;4257;48.568;7.818;2023-03-01T07:56:23;1.30;;;1.17;;
8439;SDS011;4257;48.568;7.818;2023-03-01T07:58:49;1.57;;;1.13;;
8439;SDS011;4257;48.568;7.818;2023-03-01T08:01:17;7.13;;;2.00;;
8439;SDS011;4257;48.568;7.818;2023-03-01T08:03:45;1.50;;;1.40;;
8439;SDS011;4257;48.568;7.818;2023-03-01T08:06:13;2.90;;;0.90;;
8439;SDS011;4257;48.568;7.818;2023-03-01T08:08:40;5.20;;;2.23;;
8439;SDS011;4257;48.568;7.818;2023-03-01T08:11:07;2.53;;;0.93;;
8439;SDS011;4257;48.568;7.818;2023-03-01T08:13:36;1.70;;;0.93;;
8439;SDS011;4257;48.568;7.818;2023-03-01T08:16:03;3.80;;;1.53;;
8439;SDS011;4257;48.568;7.818;2023-03-01T08:18:30;4.00;;;1.77;;
8439;SDS011;4257;48.568;7.818;2023-03-01T08:21:02;1.20;;;1.03;;
8439;SDS011;4257;48.568;7.818;2023-03-01T08:23:29;7.23;;;1.43;;
8439;SDS011;4257;48.568;7.818;2023-03-01T08:26:02;1.83;;;1.43;;
8439;SDS011;4257;48.568;7.818;2023-03-01T08:28:29;1.87;;;1.53;;
8439;SDS011;4257;48.568;7.818;2023-03-01T08:30:56;3.53;;;1.47;;
8439;SDS011;4257;48.568;7.818;2023-03-01T08:33:22;3.60;;;2.00;;
8439;SDS011;4257;48.568;7.818;2023-03-01T08:35:48;0.70;;;0.70;;
8439;SDS011;4257;48.568;7.818;2023-03-01T08:38:16;3.03;;;1.87;;
8439;SDS011;4257;48.568;7.818;2023-03-01T08:40:43;2.60;;;1.60;;
8439;SDS011;4257;48.568;7.818;2023-03-01T08:43:09;1.70;;;1.60;;
8439;SDS011;4257;48.568;7.818;2023-03-01T08:45:36;3.90;;;2.17;;
8439;SDS011;4257;48.568;7.818;2023-03-01T08:48:02;3.47;;;1.67;;
8439;SDS011;4257;48.568;7.818;2023-03-01T08:50:29;3.53;;;1.27;;
8439;SDS011;4257;48.568;7.818;2023-03-01T08:52:55;2.03;;;1.60;;
8439;SDS011;4257;48.568;7.818;2023-03-01T08:55:23;2.90;;;2.07;;
8439;SDS011;4257;48.568;7.818;2023-03-01T08:57:49;1.17;;;1.10;;
8439;SDS011;4257;48.568;7.818;2023-03-01T09:00:16;1.70;;;1.60;;
8439;SDS011;4257;48.568;7.818;2023-03-01T09:02:43;2.67;;;2.10;;
8439;SDS011;4257;48.568;7.818;2023-03-01T09:05:10;2.37;;;1.63;;
8439;SDS011;4257;48.568;7.818;2023-03-01T09:07:37;3.73;;;2.57;;
8439;SDS011;4257;48.568;7.818;2023-03-01T09:10:04;4.17;;;1.40;;
8439;SDS011;4257;48.568;7.818;2023-03-01T09:15:00;1.43;;;1.10;;
8439;SDS011;4257;48.568;7.818;2023-03-01T09:17:26;1.37;;;1.27;;
8439;SDS011;4257;48.568;7.818;2023-03-01T09:19:53;3.63;;;1.53;;
8439;SDS011;4257;48.568;7.818;2023-03-01T09:22:19;2.70;;;1.77;;
8439;SDS011;4257;48.568;7.818;2023-03-01T09:24:45;2.00;;;1.23;;
8439;SDS011;4257;48.568;7.818;2023-03-01T09:27:12;4.83;;;2.03;;
8439;SDS011;4257;48.568;7.818;2023-03-01T09:29:41;2.73;;;2.53;;
8439;SDS011;4257;48.568;7.818;2023-03-01T09:32:07;7.20;;;2.00;;
8439;SDS011;4257;48.568;7.818;2023-03-01T09:34:34;12.63;;;2.53;;
8439;SDS011;4257;48.568;7.818;2023-03-01T09:37:21;8.30;;;1.73;;
8439;SDS011;4257;48.568;7.818;2023-03-01T09:39:47;1.80;;;1.00;;
8439;SDS011;4257;48.568;7.818;2023-03-01T09:42:14;2.07;;;0.90;;
8439;SDS011;4257;48.568;7.818;2023-03-01T09:44:43;4.47;;;1.83;;
8439;SDS011;4257;48.568;7.818;2023-03-01T09:47:17;1.60;;;1.13;;
8439;SDS011;4257;48.568;7.818;2023-03-01T09:49:45;2.10;;;1.27;;
8439;SDS011;4257;48.568;7.818;2023-03-01T09:52:19;4.77;;;2.33;;
8439;SDS011;4257;48.568;7.818;2023-03-01T09:54:49;2.63;;;1.37;;
8439;SDS011;4257;48.568;7.818;2023-03-01T09:57:20;4.07;;;1.63;;
8439;SDS011;4257;48.568;7.818;2023-03-01T09:59:58;3.97;;;2.50;;
8439;SDS011;4257;48.568;7.818;2023-03-01T10:02:31;1.83;;;1.43;;
8439;SDS011;4257;48.568;7.818;2023-03-01T10:05:05;5.50;;;2.37;;
8439;SDS011;4257;48.568;7.818;2023-03-01T10:07:43;2.83;;;2.10;;
8439;SDS011;4257;48.568;7.818;2023-03-01T10:10:16;4.00;;;2.27;;
8439;SDS011;4257;48.568;7.818;2023-03-01T10:12:52;4.43;;;2.47;;
8439;SDS011;4257;48.568;7.818;2023-03-01T10:15:22;2.03;;;1.47;;
8439;SDS011;4257;48.568;7.818;2023-03-01T10:17:55;1.60;;;1.50;;
8439;SDS011;4257;48.568;7.818;2023-03-01T10:20:23;4.83;;;2.87;;
8439;SDS011;4257;48.568;7.818;2023-03-01T10:22:51;3.57;;;3.00;;
8439;SDS011;4257;48.568;7.818;2023-03-01T10:25:23;5.37;;;1.93;;
8439;SDS011;4257;48.568;7.818;2023-03-01T10:27:55;3.23;;;1.93;;
8439;SDS011;4257;48.568;7.818;2023-03-01T10:30:32;2.50;;;1.97;;
8439;SDS011;4257;48.568;7.818;2023-03-01T10:33:03;3.20;;;2.67;;
8439;SDS011;4257;48.568;7.818;2023-03-01T10:35:31;3.80;;;2.37;;
8439;SDS011;4257;48.568;7.818;2023-03-01T10:38:04;2.10;;;1.80;;
8439;SDS011;4257;48.568;7.818;2023-03-01T10:40:32;14.77;;;2.60;;
8439;SDS011;4257;48.568;7.818;2023-03-01T10:42:59;2.60;;;2.33;;
8439;SDS011;4257;48.568;7.818;2023-03-01T10:45:32;3.93;;;3.20;;
8439;SDS011;4257;48.568;7.818;2023-03-01T10:48:04;6.60;;;2.83;;
8439;SDS011;4257;48.568;7.818;2023-03-01T10:50:32;2.87;;;2.13;;
8439;SDS011;4257;48.568;7.818;2023-03-01T10:52:59;3.67;;;2.07;;
8439;SDS011;4257;48.568;7.818;2023-03-01T10:55:28;3.80;;;2.60;;
8439;SDS011;4257;48.568;7.818;2023-03-01T10:58:07;2.47;;;2.27;;
8439;SDS011;4257;48.568;7.818;2023-03-01T11:00:46;7.80;;;1.83;;
8439;SDS011;4257;48.568;7.818;2023-03-01T11:03:16;4.40;;;2.63;;
8439;SDS011;4257;48.568;7.818;2023-03-01T11:05:51;4.03;;;2.93;;
8439;SDS011;4257;48.568;7.818;2023-03-01T11:08:29;5.07;;;2.53;;
8439;SDS011;4257;48.568;7.818;2023-03-01T11:11:05;4.27;;;3.37;;
8439;SDS011;4257;48.568;7.818;2023-03-01T11:13:33;5.23;;;3.13;;
8439;SDS011;4257;48.568;7.818;2023-03-01T11:16:02;3.10;;;2.80;;
8439;SDS011;4257;48.568;7.818;2023-03-01T11:18:30;2.80;;;2.30;;
8439;SDS011;4257;48.568;7.818;2023-03-01T11:20:56;4.20;;;1.73;;
8439;SDS011;4257;48.568;7.818;2023-03-01T11:23:24;2.93;;;2.50;;
8439;SDS011;4257;48.568;7.818;2023-03-01T11:25:53;4.03;;;2.80;;
8439;SDS011;4257;48.568;7.818;2023-03-01T11:28:22;4.67;;;2.10;;
8439;SDS011;4257;48.568;7.818;2023-03-01T11:30:50;4.90;;;2.80;;
8439;SDS011;4257;48.568;7.818;2023-03-01T11:33:24;3.50;;;2.63;;
8439;SDS011;4257;48.568;7.818;2023-03-01T11:36:00;4.53;;;2.47;;
8439;SDS011;4257;48.568;7.818;2023-03-01T11:38:29;7.97;;;1.87;;
8439;SDS011;4257;48.568;7.818;2023-03-01T11:40:59;2.70;;;2.03;;
8439;SDS011;4257;48.568;7.818;2023-03-01T11:43:33;5.13;;;3.43;;
8439;SDS011;4257;48.568;7.818;2023-03-01T11:46:24;4.77;;;2.70;;
8439;SDS011;4257;48.568;7.818;2023-03-01T11:49:04;5.70;;;2.93;;
8439;SDS011;4257;48.568;7.818;2023-03-01T11:51:41;2.27;;;2.07;;
8439;SDS011;4257;48.568;7.818;2023-03-01T11:54:17;4.83;;;2.83;;
8439;SDS011;4257;48.568;7.818;2023-03-01T11:56:54;3.60;;;2.13;;
8439;SDS011;4257;48.568;7.818;2023-03-01T12:05:15;2.93;;;2.37;;
8439;SDS011;4257;48.568;7.818;2023-03-01T12:07:49;6.60;;;2.43;;
8439;SDS011;4257;48.568;7.818;2023-03-01T12:10:21;4.03;;;2.00;;
8439;SDS011;4257;48.568;7.818;2023-03-01T12:12:56;3.93;;;2.43;;
8439;SDS011;4257;48.568;7.818;2023-03-01T12:15:33;3.07;;;2.60;;
8439;SDS011;4257;48.568;7.818;2023-03-01T12:18:16;3.67;;;1.90;;
8439;SDS011;4257;48.568;7.818;2023-03-01T12:21:12;3.70;;;2.97;;
8439;SDS011;4257;48.568;7.818;2023-03-01T12:26:42;2.60;;;1.83;;
8439;SDS011;4257;48.568;7.818;2023-03-01T12:29:18;4.27;;;2.40;;
8439;SDS011;4257;48.568;7.818;2023-03-01T12:32:00;3.00;;;2.33;;
8439;SDS011;4257;48.568;7.818;2023-03-01T12:34:47;3.33;;;1.67;;
8439;SDS011;4257;48.568;7.818;2023-03-01T12:37:27;7.33;;;2.17;;
8439;SDS011;4257;48.568;7.818;2023-03-01T12:40:03;4.73;;;2.47;;
8439;SDS011;4257;48.568;7.818;2023-03-01T12:42:42;5.03;;;1.83;;
8439;SDS011;4257;48.568;7.818;2023-03-01T12:45:30;2.80;;;1.87;;
8439;SDS011;4257;48.568;7.818;2023-03-01T12:48:06;3.43;;;1.00;;
8439;SDS011;4257;48.568;7.818;2023-03-01T12:50:38;5.57;;;3.53;;
8439;SDS011;4257;48.568;7.818;2023-03-01T12:53:21;5.93;;;2.03;;
8439;SDS011;4257;48.568;7.818;2023-03-01T12:55:49;5.43;;;2.43;;
8439;SDS011;4257;48.568;7.818;2023-03-01T12:58:19;5.63;;;2.70;;
8439;SDS011;4257;48.568;7.818;2023-03-01T13:00:53;4.17;;;3.27;;
8439;SDS011;4257;48.568;7.818;2023-03-01T13:03:29;5.47;;;3.07;;
8439;SDS011;4257;48.568;7.818;2023-03-01T13:06:04;4.03;;;2.50;;
8439;SDS011;4257;48.568;7.818;2023-03-01T13:08:38;4.77;;;1.93;;
8439;SDS011;4257;48.568;7.818;2023-03-01T13:11:11;6.37;;;1.87;;
8439;SDS011;4257;48.568;7.818;2023-03-01T13:13:41;5.57;;;3.43;;
8439;SDS011;4257;48.568;7.818;2023-03-01T13:16:21;3.50;;;2.87;;
8439;SDS011;4257;48.568;7.818;2023-03-01T13:19:06;2.97;;;2.57;;
8439;SDS011;4257;48.568;7.818;2023-03-01T13:21:36;6.67;;;2.37;;
8439;SDS011;4257;48.568;7.818;2023-03-01T13:24:04;4.80;;;2.37;;
8439;SDS011;4257;48.568;7.818;2023-03-01T13:29:45;4.10;;;2.87;;
8439;SDS011;4257;48.568;7.818;2023-03-01T13:32:19;5.07;;;2.00;;
8439;SDS011;4257;48.568;7.818;2023-03-01T13:34:51;4.27;;;2.87;;
8439;SDS011;4257;48.568;7.818;2023-03-01T13:37:29;5.90;;;2.63;;
8439;SDS011;4257;48.568;7.818;2023-03-01T13:40:02;5.70;;;2.53;;
8439;SDS011;4257;48.568;7.818;2023-03-01T13:42:35;5.83;;;2.07;;
8439;SDS011;4257;48.568;7.818;2023-03-01T13:45:05;4.30;;;2.83;;
8439;SDS011;4257;48.568;7.818;2023-03-01T13:47:48;6.57;;;3.47;;
8439;SDS011;4257;48.568;7.818;2023-03-01T13:50:18;2.77;;;2.27;;
8439;SDS011;4257;48.568;7.818;2023-03-01T13:52:48;4.03;;;2.40;;
8439;SDS011;4257;48.568;7.818;2023-03-01T13:55:19;4.77;;;3.80;;
8439;SDS011;4257;48.568;7.818;2023-03-01T13:57:48;7.93;;;4.43;;
8439;SDS011;4257;48.568;7.818;2023-03-01T14:00:29;5.50;;;1.80;;
8439;SDS011;4257;48.568;7.818;2023-03-01T14:03:08;9.97;;;2.07;;
8439;SDS011;4257;48.568;7.818;2023-03-01T14:05:37;3.63;;;2.00;;
8439;SDS011;4257;48.568;7.818;2023-03-01T14:08:04;8.60;;;3.58;;
8439;SDS011;4257;48.568;7.818;2023-03-01T14:10:35;4.57;;;3.17;;
8439;SDS011;4257;48.568;7.818;2023-03-01T14:13:20;6.33;;;2.23;;
8439;SDS011;4257;48.568;7.818;2023-03-01T14:15:58;4.07;;;2.10;;
8439;SDS011;4257;48.568;7.818;2023-03-01T14:18:34;5.03;;;2.90;;
8439;SDS011;4257;48.568;7.818;2023-03-01T14:21:06;6.53;;;2.17;;
8439;SDS011;4257;48.568;7.818;2023-03-01T14:23:33;3.97;;;2.40;;
8439;SDS011;4257;48.568;7.818;2023-03-01T14:26:02;4.03;;;3.00;;
8439;SDS011;4257;48.568;7.818;2023-03-01T14:28:30;5.90;;;2.40;;
8439;SDS011;4257;48.568;7.818;2023-03-01T14:30:59;3.67;;;2.80;;
8439;SDS011;4257;48.568;7.818;2023-03-01T14:33:27;12.47;;;3.20;;
8439;SDS011;4257;48.568;7.818;2023-03-01T14:35:55;4.63;;;2.67;;
8439;SDS011;4257;48.568;7.818;2023-03-01T14:38:28;5.73;;;2.03;;
8439;SDS011;4257;48.568;7.818;2023-03-01T14:40:57;2.97;;;1.63;;
8439;SDS011;4257;48.568;7.818;2023-03-01T14:43:27;5.17;;;2.20;;
8439;SDS011;4257;48.568;7.818;2023-03-01T14:45:55;7.30;;;3.30;;
8439;SDS011;4257;48.568;7.818;2023-03-01T14:48:22;5.37;;;2.37;;
8439;SDS011;4257;48.568;7.818;2023-03-01T14:50:49;5.37;;;3.93;;
8439;SDS011;4257;48.568;7.818;2023-03-01T14:53:17;4.77;;;2.73;;
8439;SDS011;4257;48.568;7.818;2023-03-01T14:55:46;3.37;;;3.03;;
8439;SDS011;4257;48.568;7.818;2023-03-01T14:58:14;2.63;;;2.17;;
8439;SDS011;4257;48.568;7.818;2023-03-01T15:00:47;2.47;;;2.27;;
8439;SDS011;4257;48.568;7.818;2023-03-01T15:03:17;10.70;;;2.97;;
8439;SDS011;4257;48.568;7.818;2023-03-01T15:05:50;3.97;;;2.60;;
8439;SDS011;4257;48.568;7.818;2023-03-01T15:08:17;3.63;;;2.00;;
8439;SDS011;4257;48.568;7.818;2023-03-01T15:10:55;2.93;;;2.73;;
8439;SDS011;4257;48.568;7.818;2023-03-01T15:13:24;2.77;;;2.07;;
8439;SDS011;4257;48.568;7.818;2023-03-01T15:15:52;4.00;;;2.87;;
8439;SDS011;4257;48.568;7.818;2023-03-01T15:18:20;4.50;;;2.27;;
8439;SDS011;4257;48.568;7.818;2023-03-01T15:20:49;4.53;;;2.57;;
8439;SDS011;4257;48.568;7.818;2023-03-01T15:23:18;5.23;;;3.13;;
8439;SDS011;4257;48.568;7.818;2023-03-01T15:25:48;5.13;;;3.10;;
8439;SDS011;4257;48.568;7.818;2023-03-01T15:28:21;3.80;;;2.47;;
8439;SDS011;4257;48.568;7.818;2023-03-01T15:30:53;9.37;;;3.13;;
8439;SDS011;4257;48.568;7.818;2023-03-01T15:33:35;3.60;;;2.17;;
8439;SDS011;4257;48.568;7.818;2023-03-01T15:36:03;2.93;;;2.63;;
8439;SDS011;4257;48.568;7.818;2023-03-01T15:38:34;2.80;;;2.00;;
8439;SDS011;4257;48.568;7.818;2023-03-01T15:41:04;5.93;;;3.23;;
8439;SDS011;4257;48.568;7.818;2023-03-01T15:43:42;4.07;;;2.63;;